Time;durP1;ratioP1;P1;durP2;ratioP2;P2;SDS_P1;SDS_P2;PMS_P1;PMS_P2;Temp;Humidity;BMP_temperature;BMP_pressure;BME280_temperature;BME280_humidity;BME280_pressure;Samples;Min_cycle;Max_cycle;Signal;HPM_P1;HPM_P2
2021/08/30 00:01:15;;;;;;;30.62;21.20;;;;;;;16.78;100.00;98578.01;1720955;82;20957;-72
2021/08/30 00:03:43;;;;;;;31.05;21.82;;;;;;;16.78;100.00;98583.55;1718386;82;21052;-73
2021/08/30 00:06:10;;;;;;;33.00;22.27;;;;;;;16.76;100.00;98579.56;1728764;82;21139;-73
2021/08/30 00:08:36;;;;;;;34.63;21.95;;;;;;;16.73;100.00;98581.73;1721853;82;21015;-72
2021/08/30 00:11:03;;;;;;;35.50;22.93;;;;;;;16.72;100.00;98586.48;1727776;82;20983;-71
2021/08/30 00:13:32;;;;;;;39.75;28.27;;;;;;;16.71;100.00;98596.56;1724794;82;20983;-71
2021/08/30 00:16:00;;;;;;;42.55;28.07;;;;;;;16.68;100.00;98607.02;1724668;82;20905;-71
2021/08/30 00:18:30;;;;;;;37.25;24.72;;;;;;;16.64;100.00;98605.59;1724019;82;20912;-71
2021/08/30 00:20:56;;;;;;;37.50;23.40;;;;;;;16.60;100.00;98595.61;1726753;82;20889;-72
2021/08/30 00:23:25;;;;;;;29.07;22.32;;;;;;;16.55;100.00;98595.95;1730247;82;20971;-72
2021/08/30 00:25:52;;;;;;;31.10;23.15;;;;;;;16.53;100.00;98594.14;1728105;82;20939;-72
2021/08/30 00:28:20;;;;;;;34.92;21.57;;;;;;;16.48;100.00;98596.08;1723373;82;21151;-73
2021/08/30 00:30:46;;;;;;;30.80;21.05;;;;;;;16.45;100.00;98597.41;1725791;82;21078;-73
2021/08/30 00:33:14;;;;;;;29.63;19.42;;;;;;;16.39;100.00;98597.54;1729571;82;20876;-71
2021/08/30 00:35:41;;;;;;;28.52;20.52;;;;;;;16.34;100.00;98594.52;1728409;82;20877;-71
2021/08/30 00:38:07;;;;;;;30.35;21.20;;;;;;;16.28;100.00;98591.87;1728198;82;21751;-72
2021/08/30 00:40:37;;;;;;;30.97;20.10;;;;;;;16.26;100.00;98590.64;1721689;82;21385;-73
2021/08/30 00:43:04;;;;;;;23.47;19.65;;;;;;;16.23;100.00;98589.42;1728499;82;21519;-73
2021/08/30 00:45:32;;;;;;;27.48;19.45;;;;;;;16.18;100.00;98596.67;1725253;82;20889;-73
2021/08/30 00:48:01;;;;;;;31.30;19.07;;;;;;;16.17;100.00;98593.11;1728883;82;21489;-73
2021/08/30 00:50:28;;;;;;;27.35;20.02;;;;;;;16.17;100.00;98593.11;1724717;82;21547;-72
2021/08/30 00:52:56;;;;;;;29.95;20.85;;;;;;;16.17;100.00;98588.19;1721794;82;21003;-71
2021/08/30 00:55:23;;;;;;;21.85;18.12;;;;;;;16.18;100.00;98586.98;1724158;82;21136;-73
2021/08/30 00:57:50;;;;;;;28.60;19.37;;;;;;;16.18;100.00;98587.78;1727150;82;20924;-72
2021/08/30 01:00:17;;;;;;;28.12;18.27;;;;;;;16.19;100.00;98585.81;1724632;82;20967;-73
2021/08/30 01:02:44;;;;;;;24.72;18.27;;;;;;;16.18;100.00;98586.40;1723957;82;20904;-72
2021/08/30 01:05:12;;;;;;;27.00;18.60;;;;;;;16.19;100.00;98584.43;1728133;82;21558;-70
2021/08/30 01:08:16;;;;;;;31.95;19.92;;;;;;;16.21;100.00;98592.36;1713341;82;21804;-71
2021/08/30 01:10:55;;;;;;;29.02;19.00;;;;;;;16.23;100.00;98593.58;1723332;82;20883;-71
2021/08/30 01:13:30;;;;;;;27.15;18.92;;;;;;;16.25;100.00;98594.59;1719374;82;21437;-72
2021/08/30 01:15:59;;;;;;;27.82;19.05;;;;;;;16.25;100.00;98585.70;1727160;82;20980;-72
2021/08/30 01:18:26;;;;;;;33.48;20.43;;;;;;;16.26;100.00;98587.88;1722512;82;20935;-74
2021/08/30 01:21:16;;;;;;;23.98;19.10;;;;;;;16.27;100.00;98591.66;1723820;82;21159;-74
2021/08/30 01:23:53;;;;;;;26.52;18.85;;;;;;;16.29;100.00;98588.51;1724983;82;20986;-74
2021/08/30 01:26:21;;;;;;;27.45;19.40;;;;;;;16.32;100.00;98602.98;1718090;82;21051;-72
2021/08/30 01:29:03;;;;;;;29.40;19.05;;;;;;;16.35;100.00;98623.01;1725151;82;21503;-73
2021/08/30 01:31:50;;;;;;;26.57;19.73;;;;;;;16.36;100.00;98625.41;1726997;82;21585;-72
2021/08/30 01:34:18;;;;;;;27.70;20.48;;;;;;;16.40;100.00;98607.45;1720075;82;21083;-71
2021/08/30 01:36:45;;;;;;;25.62;19.15;;;;;;;16.45;100.00;98605.14;1731540;82;20880;-71
2021/08/30 01:39:11;;;;;;;32.60;20.75;;;;;;;16.48;100.00;98634.06;1721242;82;20893;-71
2021/08/30 01:41:38;;;;;;;28.85;21.57;;;;;;;16.50;100.00;98667.14;1728700;82;20972;-72
2021/08/30 01:44:06;;;;;;;31.90;21.50;;;;;;;16.51;100.00;98682.59;1721793;82;20879;-73
2021/08/30 01:46:35;;;;;;;25.62;18.12;;;;;;;16.55;100.00;98706.77;1730176;82;21175;-72
2021/08/30 01:49:01;;;;;;;31.20;20.85;;;;;;;16.57;100.00;98693.34;1725161;82;20841;-72
2021/08/30 01:51:29;;;;;;;31.95;20.25;;;;;;;16.58;100.00;98678.31;1722404;82;20923;-72
2021/08/30 01:53:55;;;;;;;27.07;19.62;;;;;;;16.60;100.00;98662.91;1724636;82;20932;-72
2021/08/30 01:56:23;;;;;;;30.25;19.40;;;;;;;16.61;100.00;98676.97;1723083;82;20891;-72
2021/08/30 02:01:36;;;;;;;34.45;20.12;;;;;;;16.60;100.00;98680.12;1716566;82;20971;-73
2021/08/30 02:04:04;;;;;;;29.02;19.50;;;;;;;16.59;100.00;98643.89;1727957;82;20952;-73
2021/08/30 02:06:32;;;;;;;26.85;20.48;;;;;;;16.57;100.00;98623.48;1719801;82;20924;-73
2021/08/30 02:08:59;;;;;;;29.37;22.15;;;;;;;16.56;100.00;98616.35;1696993;82;21117;-73
2021/08/30 02:11:33;;;;;;;28.15;20.57;;;;;;;16.55;100.00;98606.44;1730239;82;21135;-73
2021/08/30 02:13:58;;;;;;;27.65;20.95;;;;;;;16.53;100.00;98596.33;1727133;82;21669;-72
2021/08/30 02:16:26;;;;;;;29.42;20.82;;;;;;;16.51;100.00;98593.14;1720235;82;21565;-71
2021/08/30 02:19:07;;;;;;;31.07;21.50;;;;;;;16.51;100.00;98603.63;1721585;82;21448;-73
2021/08/30 02:21:57;;;;;;;28.52;19.52;;;;;;;16.54;100.00;98615.13;1725826;82;20913;-73
2021/08/30 02:24:54;;;;;;;30.32;20.97;;;;;;;16.56;100.00;98605.86;1727287;82;21217;-73
2021/08/30 02:27:34;;;;;;;28.40;20.50;;;;;;;16.58;100.00;98618.74;1722986;82;21018;-72
2021/08/30 02:30:15;;;;;;;29.05;20.17;;;;;;;16.58;100.00;98610.44;1720425;82;20935;-73
2021/08/30 02:32:44;;;;;;;31.05;21.93;;;;;;;16.58;100.00;98597.38;1714681;82;21069;-73
2021/08/30 02:35:12;;;;;;;34.33;21.05;;;;;;;16.58;100.00;98596.58;1736397;82;21028;-73
2021/08/30 02:37:40;;;;;;;34.92;21.50;;;;;;;16.57;100.00;98596.38;1724880;82;21960;-73
2021/08/30 02:40:08;;;;;;;30.82;21.90;;;;;;;16.57;100.00;98597.75;1732183;82;20953;-73
2021/08/30 02:42:35;;;;;;;29.63;21.20;;;;;;;16.56;100.00;98594.19;1731001;82;20938;-73
2021/08/30 02:45:04;;;;;;;33.65;21.25;;;;;;;16.58;100.00;98597.96;1717554;83;20932;-73
2021/08/30 02:47:32;;;;;;;37.88;21.80;;;;;;;16.58;100.00;98600.73;1723993;82;20888;-74
2021/08/30 02:50:02;;;;;;;30.82;22.32;;;;;;;16.59;100.00;98605.09;1731315;82;21214;-75
2021/08/30 02:52:29;;;;;;;28.32;21.75;;;;;;;16.60;100.00;98603.34;1716998;82;21091;-73
2021/08/30 02:54:55;;;;;;;26.95;19.85;;;;;;;16.61;100.00;98597.20;1729546;82;21427;-72
2021/08/30 02:57:22;;;;;;;32.48;22.82;;;;;;;16.64;100.00;98597.84;1706655;82;20959;-72
2021/08/30 02:59:51;;;;;;;26.42;21.52;;;;;;;16.65;100.00;98604.42;1699531;82;21050;-70
2021/08/30 03:02:24;;;;;;;28.60;21.05;;;;;;;16.67;100.00;98604.84;1727750;82;21131;-70
2021/08/30 03:04:55;;;;;;;32.67;21.73;;;;;;;16.68;100.00;98600.89;1719176;82;21020;-71
2021/08/30 03:07:24;;;;;;;28.80;23.00;;;;;;;16.68;100.00;98602.86;1719290;82;21541;-70
2021/08/30 03:09:51;;;;;;;30.60;22.00;;;;;;;16.70;100.00;98610.20;1732136;81;21098;-71
2021/08/30 03:12:18;;;;;;;31.50;23.87;;;;;;;16.71;100.00;98614.58;1732513;82;20948;-71
2021/08/30 03:14:46;;;;;;;32.65;22.65;;;;;;;16.73;100.00;98613.61;1736858;82;20905;-71
2021/08/30 03:17:14;;;;;;;28.90;22.37;;;;;;;16.73;100.00;98619.95;1719051;82;21222;-72
2021/08/30 03:19:43;;;;;;;29.50;21.93;;;;;;;16.74;100.00;98607.69;1745157;82;20896;-71
2021/08/30 03:22:11;;;;;;;30.90;23.00;;;;;;;16.74;100.00;98606.89;1737220;81;20928;-70
2021/08/30 03:24:40;;;;;;;28.55;22.62;;;;;;;16.75;100.00;98609.87;1728819;82;20975;-70
2021/08/30 03:27:10;;;;;;;33.10;23.10;;;;;;;16.76;100.00;98612.82;1729829;82;21073;-70
2021/08/30 03:29:38;;;;;;;38.77;23.50;;;;;;;16.78;100.00;98617.39;1735131;82;20933;-73
2021/08/30 03:32:08;;;;;;;29.20;23.00;;;;;;;16.80;100.00;98623.36;1732450;81;20964;-72
2021/08/30 03:34:36;;;;;;;33.78;23.60;;;;;;;16.81;100.00;98624.36;1719737;82;21123;-72
2021/08/30 03:37:06;;;;;;;34.67;24.67;;;;;;;16.84;100.00;98619.45;1704870;82;20922;-75
2021/08/30 03:39:32;;;;;;;31.33;22.62;;;;;;;16.84;100.00;98603.41;1733225;82;21777;-73
2021/08/30 03:42:03;;;;;;;27.93;21.95;;;;;;;16.84;100.00;98601.43;1724010;82;21486;-72
2021/08/30 03:44:30;;;;;;;30.48;22.07;;;;;;;16.83;100.00;98602.61;1731256;82;20945;-73
2021/08/30 03:46:57;;;;;;;32.58;23.73;;;;;;;16.84;100.00;98599.25;1708644;82;21020;-74
2021/08/30 03:49:26;;;;;;;33.95;24.67;;;;;;;16.86;100.00;98594.12;1734827;81;21107;-75
2021/08/30 03:51:53;;;;;;;34.92;25.72;;;;;;;16.88;100.00;98590.38;1723085;81;21520;-72
2021/08/30 03:54:21;;;;;;;26.00;21.17;;;;;;;16.90;100.00;98588.61;1727503;81;20969;-73
2021/08/30 03:56:47;;;;;;;33.78;23.50;;;;;;;16.92;100.00;98588.45;1694116;82;21509;-73
2021/08/30 03:59:18;;;;;;;36.95;24.45;;;;;;;16.96;100.00;98595.41;1691457;83;21007;-72
2021/08/30 04:01:50;;;;;;;34.55;25.20;;;;;;;16.99;100.00;98594.65;1730432;82;20887;-71
2021/08/30 04:04:20;;;;;;;27.98;21.93;;;;;;;17.03;100.00;98584.39;1693324;81;21141;-72
2021/08/30 04:06:46;;;;;;;36.03;25.02;;;;;;;17.09;100.00;98590.59;1714371;82;20908;-73
2021/08/30 04:09:15;;;;;;;39.48;24.20;;;;;;;17.15;100.00;98593.23;1728821;81;20967;-73
2021/08/30 04:11:44;;;;;;;30.08;23.20;;;;;;;17.22;100.00;98585.56;1743571;81;21019;-72
2021/08/30 04:14:12;;;;;;;33.48;21.48;;;;;;;17.28;100.00;98580.45;1718437;82;21042;-75
2021/08/30 04:16:41;;;;;;;32.65;23.87;;;;;;;17.32;100.00;98598.72;1726087;81;21062;-77
2021/08/30 04:19:09;;;;;;;37.55;24.65;;;;;;;17.35;100.00;98638.74;1733854;82;20941;-74
2021/08/30 04:21:35;;;;;;;30.92;22.80;;;;;;;17.35;100.00;98656.77;1723523;82;20983;-69
2021/08/30 04:24:02;;;;;;;29.12;20.85;;;;;;;17.35;100.00;98633.98;1723569;82;21059;-73
2021/08/30 04:26:28;;;;;;;31.90;23.05;;;;;;;17.34;100.00;98593.56;1741352;82;20984;-70
2021/08/30 04:28:55;;;;;;;29.32;20.60;;;;;;;17.34;100.00;98589.40;1727653;82;21114;-69
2021/08/30 04:31:22;;;;;;;27.65;20.57;;;;;;;17.33;100.00;98591.20;1740595;81;21472;-69
2021/08/30 04:33:48;;;;;;;31.25;19.48;;;;;;;17.31;100.00;98579.10;1744300;81;21488;-73
2021/08/30 04:36:15;;;;;;;25.50;17.25;;;;;;;17.30;100.00;98583.05;1726463;82;20927;-72
2021/08/30 04:38:41;;;;;;;28.10;19.40;;;;;;;17.30;100.00;98591.97;1709599;82;21272;-70
2021/08/30 04:41:07;;;;;;;25.60;20.40;;;;;;;17.30;100.00;98591.97;1723594;81;21121;-73
2021/08/30 04:43:34;;;;;;;24.55;19.73;;;;;;;17.30;100.00;98596.13;1720917;82;20889;-71
2021/08/30 04:46:00;;;;;;;33.65;18.90;;;;;;;17.32;100.00;98602.89;1723190;82;21027;-70
2021/08/30 04:48:27;;;;;;;32.60;19.30;;;;;;;17.35;100.00;98588.22;1728931;82;20977;-78
2021/08/30 04:50:54;;;;;;;29.95;20.35;;;;;;;17.40;100.00;98593.41;1723219;81;21004;-74
2021/08/30 04:53:20;;;;;;;26.07;18.45;;;;;;;17.46;100.00;98603.56;1745435;81;21515;-80
2021/08/30 04:55:47;;;;;;;26.75;18.80;;;;;;;17.50;100.00;98597.45;1742574;82;20910;-69
2021/08/30 04:58:14;;;;;;;30.92;19.27;;;;;;;17.55;100.00;98604.04;1730550;82;20997;-70
2021/08/30 05:00:40;;;;;;;28.83;18.15;;;;;;;17.61;100.00;98606.66;1717022;82;20926;-73
2021/08/30 05:03:07;;;;;;;33.00;19.45;;;;;;;17.69;100.00;98604.77;1728697;81;21024;-74
2021/08/30 05:05:33;;;;;;;22.85;18.62;;;;;;;17.76;100.00;98607.00;1714277;81;21164;-70
2021/08/30 05:08:00;;;;;;;23.75;17.48;;;;;;;17.83;100.00;98597.92;1707412;81;21057;-72
2021/08/30 05:10:26;;;;;;;32.70;20.15;;;;;;;17.93;100.00;98603.31;1704641;82;21065;-69
2021/08/30 05:12:52;;;;;;;23.52;18.60;;;;;;;18.02;100.00;98605.95;1705660;82;21006;-73
2021/08/30 05:15:21;;;;;;;27.52;19.37;;;;;;;18.14;100.00;98607.02;1715209;82;20970;-75
2021/08/30 05:17:49;;;;;;;25.27;18.25;;;;;;;18.26;100.00;98607.87;1723685;81;21129;-75
2021/08/30 05:20:17;;;;;;;28.85;18.42;;;;;;;18.33;100.00;98600.36;1705815;82;21047;-71
2021/08/30 05:22:45;;;;;;;22.70;18.60;;;;;;;18.41;100.00;98599.80;1710005;82;20897;-75
2021/08/30 05:25:13;;;;;;;25.68;17.90;;;;;;;18.48;100.00;98599.83;1741958;81;20998;-75
2021/08/30 05:27:41;;;;;;;30.35;18.37;;;;;;;18.54;100.00;98596.05;1729571;80;20960;-72
2021/08/30 05:30:10;;;;;;;22.58;17.85;;;;;;;18.56;100.00;98595.06;1726834;81;21070;-74
2021/08/30 05:32:37;;;;;;;28.67;17.50;;;;;;;18.61;100.00;98603.06;1707650;81;21103;-74
2021/08/30 05:35:04;;;;;;;27.50;18.15;;;;;;;18.65;100.00;98606.64;1746488;81;21112;-73
2021/08/30 05:37:31;;;;;;;24.98;19.23;;;;;;;18.66;100.00;98597.13;1730339;81;21074;-76
2021/08/30 05:39:57;;;;;;;30.25;20.43;;;;;;;18.68;100.00;98598.91;1708203;81;21553;-75
2021/08/30 05:42:24;;;;;;;34.95;23.85;;;;;;;18.66;100.00;98602.09;1704472;82;21503;-72
2021/08/30 05:44:50;;;;;;;26.42;19.02;;;;;;;18.65;100.00;98594.94;1730749;80;20990;-73
2021/08/30 05:47:17;;;;;;;29.52;19.50;;;;;;;18.72;100.00;98592.77;1753788;81;20952;-71
2021/08/30 05:49:43;;;;;;;26.85;17.45;;;;;;;18.73;100.00;98597.14;1743446;81;21010;-73
2021/08/30 05:52:12;;;;;;;26.82;18.48;;;;;;;18.74;100.00;98592.58;1739612;81;21113;-73
2021/08/30 05:54:39;;;;;;;30.80;19.32;;;;;;;18.73;100.00;98599.33;1739872;81;21086;-70
2021/08/30 05:57:06;;;;;;;27.77;18.35;;;;;;;18.74;100.00;98595.95;1725166;82;20886;-71
2021/08/30 05:59:33;;;;;;;24.52;19.80;;;;;;;18.80;100.00;98598.55;1747024;81;20929;-72
2021/08/30 06:02:00;;;;;;;32.60;22.40;;;;;;;18.87;100.00;98595.00;1731621;81;21066;-73
2021/08/30 06:04:27;;;;;;;30.08;20.10;;;;;;;18.87;100.00;98588.05;1725515;82;20985;-73
2021/08/30 06:06:54;;;;;;;31.50;20.23;;;;;;;18.86;100.00;98593.41;1734402;81;21480;-73
2021/08/30 06:09:22;;;;;;;26.77;18.32;;;;;;;18.86;100.00;98581.69;1733694;81;20993;-74
2021/08/30 06:11:51;;;;;;;34.83;21.87;;;;;;;18.84;100.00;98578.50;1736067;82;21000;-73
2021/08/30 06:14:18;;;;;;;33.73;19.73;;;;;;;18.83;100.00;98575.53;1737231;81;21526;-74
2021/08/30 06:16:45;;;;;;;27.82;19.17;;;;;;;18.83;100.00;98585.25;1730837;82;20921;-75
2021/08/30 06:19:12;;;;;;;34.95;23.60;;;;;;;18.85;100.00;98581.48;1731743;81;21067;-71
2021/08/30 06:21:41;;;;;;;27.30;19.52;;;;;;;18.85;100.00;98577.91;1721164;81;21027;-71
2021/08/30 06:24:07;;;;;;;47.60;24.32;;;;;;;18.84;100.00;98567.98;1741926;81;21649;-70
2021/08/30 06:26:37;;;;;;;45.25;29.05;;;;;;;18.80;100.00;98561.02;1748667;82;20886;-72
2021/08/30 06:29:04;;;;;;;37.40;22.67;;;;;;;18.81;100.00;98573.73;1738707;82;20981;-71
2021/08/30 06:31:32;;;;;;;32.50;23.32;;;;;;;18.83;100.00;98574.73;1738274;81;21171;-70
2021/08/30 06:33:59;;;;;;;29.20;18.73;;;;;;;18.87;100.00;98576.33;1743577;81;20981;-70
2021/08/30 06:36:28;;;;;;;23.07;17.27;;;;;;;18.92;100.00;98575.94;1727723;81;21089;-73
2021/08/30 06:38:55;;;;;;;27.13;18.35;;;;;;;18.96;100.00;98575.35;1735135;81;20908;-69
2021/08/30 06:41:23;;;;;;;29.18;18.07;;;;;;;19.02;100.00;98568.80;1709460;81;21011;-76
2021/08/30 06:43:50;;;;;;;26.30;18.55;;;;;;;19.06;100.00;98577.33;1722603;82;21159;-70
2021/08/30 06:46:18;;;;;;;30.27;18.40;;;;;;;19.12;100.00;98589.66;1720733;82;20988;-74
2021/08/30 06:48:44;;;;;;;32.13;17.70;;;;;;;19.20;100.00;98591.05;1726311;81;21047;-74
2021/08/30 06:51:11;;;;;;;25.30;17.23;;;;;;;19.27;100.00;98583.50;1727551;82;21527;-72
2021/08/30 06:53:39;;;;;;;26.80;16.93;;;;;;;19.31;100.00;98581.52;1678572;82;21040;-72
2021/08/30 06:56:06;;;;;;;22.80;16.62;;;;;;;19.35;100.00;98561.45;1731409;81;21049;-72
2021/08/30 06:58:33;;;;;;;24.47;17.65;;;;;;;19.42;100.00;98567.61;1703583;82;20927;-72
2021/08/30 07:01:00;;;;;;;26.45;17.00;;;;;;;19.50;100.00;98576.16;1749523;81;20973;-73
2021/08/30 07:03:26;;;;;;;37.15;18.12;;;;;;;19.60;100.00;98572.59;1720139;81;20971;-71
2021/08/30 07:05:54;;;;;;;21.27;16.95;;;;;;;19.73;100.00;98573.75;1733217;82;21044;-72
2021/08/30 07:08:21;;;;;;;25.62;17.15;;;;;;;19.90;100.00;98578.30;1741182;81;21732;-72
2021/08/30 07:10:49;;;;;;;26.90;18.57;;;;;;;20.03;100.00;98570.51;1720417;82;20961;-72
2021/08/30 07:13:16;;;;;;;33.85;18.07;;;;;;;20.06;100.00;98585.02;1738345;82;20951;-70
2021/08/30 07:15:44;;;;;;;26.40;17.42;;;;;;;20.05;100.00;98579.85;1716883;82;20890;-71
2021/08/30 07:18:10;;;;;;;25.77;17.80;;;;;;;20.02;100.00;98566.13;1721545;82;21556;-69
2021/08/30 07:20:37;;;;;;;26.07;18.00;;;;;;;20.03;100.00;98586.42;1721912;81;21157;-69
2021/08/30 07:23:03;;;;;;;29.07;19.05;;;;;;;20.05;100.00;98592.39;1725367;81;20879;-71
2021/08/30 07:25:30;;;;;;;30.17;18.23;;;;;;;20.09;100.00;98591.78;1721174;82;20902;-70
2021/08/30 07:27:57;;;;;;;27.67;19.48;;;;;;;20.16;100.00;98586.79;1735763;82;21754;-75
2021/08/30 07:30:23;;;;;;;26.40;17.37;;;;;;;20.22;100.00;98588.73;1729355;82;20909;-72
2021/08/30 07:32:50;;;;;;;30.90;19.12;;;;;;;20.24;100.00;98586.34;1724841;81;21049;-76
2021/08/30 07:35:17;;;;;;;29.20;17.70;;;;;;;20.29;100.00;98576.17;1716648;82;21569;-71
2021/08/30 07:37:46;;;;;;;26.60;18.52;;;;;;;20.35;100.00;98580.12;1728835;81;21055;-71
2021/08/30 07:40:13;;;;;;;29.20;18.25;;;;;;;20.39;100.00;98582.33;1715418;81;21703;-72
2021/08/30 07:42:40;;;;;;;27.90;18.20;;;;;;;20.41;100.00;98575.75;1740600;81;20944;-72
2021/08/30 07:45:08;;;;;;;23.62;16.48;;;;;;;20.42;100.00;98576.55;1737032;81;21134;-73
2021/08/30 07:47:35;;;;;;;27.20;16.35;;;;;;;20.43;100.00;98562.20;1743784;81;20937;-73
2021/08/30 07:50:03;;;;;;;28.98;18.37;;;;;;;20.51;100.00;98563.56;1698502;81;20957;-72
2021/08/30 07:52:29;;;;;;;30.02;20.37;;;;;;;20.62;100.00;98567.89;1747315;81;20944;-72
2021/08/30 07:54:57;;;;;;;25.25;17.62;;;;;;;20.80;100.00;98570.55;1726669;81;21600;-73
2021/08/30 07:57:23;;;;;;;34.53;18.35;;;;;;;20.93;100.00;98567.48;1741381;80;21126;-73
2021/08/30 07:59:49;;;;;;;35.50;20.00;;;;;;;20.96;100.00;98569.45;1718770;80;21025;-72
2021/08/30 08:02:16;;;;;;;28.77;19.02;;;;;;;21.03;100.00;98577.78;1736752;81;21068;-71
2021/08/30 08:04:43;;;;;;;29.40;18.02;;;;;;;21.18;100.00;98576.30;1680807;82;21006;-72
2021/08/30 08:07:10;;;;;;;25.48;19.30;;;;;;;21.34;100.00;98575.20;1719434;81;21049;-73
2021/08/30 08:09:36;;;;;;;31.15;18.25;;;;;;;21.50;100.00;98572.65;1751819;81;21857;-71
2021/08/30 08:12:05;;;;;;;26.77;18.32;;;;;;;21.62;100.00;98572.75;1746255;80;21621;-73
2021/08/30 08:14:31;;;;;;;32.13;18.57;;;;;;;21.69;100.00;98572.08;1739500;81;21011;-73
2021/08/30 08:16:58;;;;;;;26.45;17.17;;;;;;;21.70;100.00;98570.88;1747139;80;21050;-73
2021/08/30 08:19:24;;;;;;;30.10;16.73;;;;;;;21.68;100.00;98566.91;1735768;81;20998;-73
2021/08/30 08:21:52;;;;;;;23.07;18.73;;;;;;;21.64;97.77;98579.50;1731345;81;21061;-73
2021/08/30 08:24:19;;;;;;;28.75;17.73;;;;;;;21.64;99.71;98578.11;1724115;81;21381;-72
2021/08/30 08:26:45;;;;;;;23.52;15.65;;;;;;;21.71;99.76;98578.05;1753021;81;21452;-73
2021/08/30 08:29:12;;;;;;;28.02;17.55;;;;;;;21.77;97.67;98579.78;1754843;80;20942;-73
2021/08/30 08:31:38;;;;;;;28.10;17.23;;;;;;;21.82;99.00;98575.15;1756246;81;21003;-73
2021/08/30 08:34:05;;;;;;;31.40;19.35;;;;;;;21.88;98.99;98569.30;1754446;81;21086;-73
2021/08/30 08:36:32;;;;;;;28.23;18.80;;;;;;;21.97;99.48;98572.97;1762542;81;20902;-73
2021/08/30 08:38:59;;;;;;;25.35;18.92;;;;;;;22.04;99.21;98569.53;1758981;81;20964;-73
2021/08/30 08:41:25;;;;;;;23.35;17.65;;;;;;;22.05;97.85;98571.12;1747936;81;21576;-74
2021/08/30 08:43:54;;;;;;;34.27;20.12;;;;;;;22.01;96.93;98561.98;1760674;80;20970;-73
2021/08/30 08:46:22;;;;;;;27.60;18.92;;;;;;;22.01;97.95;98559.75;1755525;81;21765;-73
2021/08/30 08:48:49;;;;;;;28.10;19.15;;;;;;;22.12;99.33;98555.48;1757197;81;21460;-74
2021/08/30 08:51:16;;;;;;;30.17;19.20;;;;;;;22.37;99.24;98560.17;1756477;81;20985;-73
2021/08/30 08:53:44;;;;;;;30.37;19.50;;;;;;;22.74;100.00;98550.26;1754968;81;21424;-73
2021/08/30 08:56:15;;;;;;;26.75;18.85;;;;;;;23.24;97.04;98546.71;1755688;81;21374;-73
2021/08/30 08:58:45;;;;;;;29.98;16.85;;;;;;;23.67;94.03;98548.22;1754720;81;21148;-74
2021/08/30 09:01:17;;;;;;;24.95;19.32;;;;;;;24.02;86.89;98541.13;1750948;81;20974;-73
2021/08/30 09:03:50;;;;;;;25.55;18.20;;;;;;;24.29;90.58;98539.59;1764978;80;20927;-74
2021/08/30 09:06:28;;;;;;;34.03;19.30;;;;;;;24.56;84.44;98543.64;1749719;81;20966;-73
2021/08/30 09:09:10;;;;;;;30.10;17.37;;;;;;;24.66;83.28;98542.63;1759564;81;20849;-72
2021/08/30 09:11:51;;;;;;;29.18;18.50;;;;;;;24.83;85.57;98546.88;1760213;81;21134;-72
2021/08/30 09:14:20;;;;;;;21.57;16.05;;;;;;;24.96;81.15;98555.58;1762014;81;20960;-74
2021/08/30 09:16:48;;;;;;;28.38;18.45;;;;;;;24.82;78.28;98550.29;1764543;81;21047;-73
2021/08/30 09:19:17;;;;;;;23.30;16.70;;;;;;;24.61;80.69;98556.37;1756623;81;20893;-74
2021/08/30 09:21:49;;;;;;;29.48;17.65;;;;;;;24.45;78.33;98554.91;1753043;81;20976;-72
2021/08/30 09:24:20;;;;;;;28.87;17.52;;;;;;;24.31;81.68;98551.17;1759145;81;21126;-73
2021/08/30 09:26:57;;;;;;;31.77;18.45;;;;;;;24.29;82.04;98551.42;1749797;81;20837;-72
2021/08/30 09:29:27;;;;;;;27.93;18.37;;;;;;;24.23;81.14;98549.73;1755516;81;20919;-73
2021/08/30 09:32:14;;;;;;;31.12;19.05;;;;;;;24.16;81.17;98547.07;1761346;81;20928;-73
2021/08/30 09:34:51;;;;;;;26.20;18.42;;;;;;;24.12;82.86;98549.77;1757591;81;20919;-73
2021/08/30 09:37:23;;;;;;;34.65;19.25;;;;;;;24.17;82.60;98544.45;1753556;81;21127;-73
2021/08/30 09:39:56;;;;;;;25.37;19.02;;;;;;;24.35;83.06;98540.67;1752321;81;21524;-72
2021/08/30 09:42:23;;;;;;;30.57;19.45;;;;;;;24.77;85.18;98537.38;1749793;81;20991;-73
2021/08/30 09:44:51;;;;;;;27.75;18.27;;;;;;;25.14;82.51;98540.34;1759790;80;21002;-73
2021/08/30 09:47:21;;;;;;;34.95;18.77;;;;;;;25.33;79.46;98536.66;1760763;81;20893;-74
2021/08/30 09:49:52;;;;;;;29.95;17.05;;;;;;;25.38;78.15;98536.13;1749235;81;21471;-74
2021/08/30 09:52:20;;;;;;;23.10;16.93;;;;;;;25.41;78.55;98542.89;1711450;82;20928;-74
2021/08/30 09:54:49;;;;;;;23.32;17.10;;;;;;;25.48;78.05;98535.05;1713162;82;20992;-74
2021/08/30 09:57:15;;;;;;;26.37;17.87;;;;;;;25.51;76.22;98525.73;1698451;84;20941;-74
2021/08/30 09:59:46;;;;;;;30.12;17.80;;;;;;;25.64;77.14;98525.22;1693735;84;20905;-73
2021/08/30 10:02:18;;;;;;;25.08;16.95;;;;;;;25.84;77.39;98529.93;1751355;81;21104;-73
2021/08/30 10:04:46;;;;;;;28.77;18.83;;;;;;;26.02;74.74;98535.04;1757896;81;21392;-73
2021/08/30 10:07:12;;;;;;;29.87;17.48;;;;;;;26.08;73.66;98543.11;1750180;81;21496;-74
2021/08/30 10:09:42;;;;;;;29.42;18.95;;;;;;;26.08;73.65;98549.52;1766504;81;21499;-74
2021/08/30 10:12:08;;;;;;;28.45;16.12;;;;;;;26.10;74.12;98544.23;1710530;82;21504;-73
2021/08/30 10:14:37;;;;;;;24.10;15.55;;;;;;;26.18;73.50;98544.22;1691506;84;20853;-73
2021/08/30 10:17:04;;;;;;;30.60;16.57;;;;;;;26.22;69.03;98548.33;1694281;83;21063;-72
2021/08/30 10:19:36;;;;;;;27.15;16.87;;;;;;;26.24;69.57;98556.50;1688037;84;21086;-73
2021/08/30 10:22:19;;;;;;;24.07;16.15;;;;;;;26.37;68.41;98551.56;1690244;83;20917;-72
2021/08/30 10:24:47;;;;;;;26.68;16.42;;;;;;;26.52;68.40;98543.66;1698336;83;20958;-73
2021/08/30 10:27:14;;;;;;;33.50;15.72;;;;;;;26.71;68.61;98548.91;1702766;83;21221;-73
2021/08/30 10:29:42;;;;;;;28.83;17.87;;;;;;;26.92;65.98;98546.84;1689571;84;21102;-73
2021/08/30 10:32:23;;;;;;;28.25;16.65;;;;;;;27.05;67.30;98539.05;1688464;84;20991;-73
2021/08/30 10:34:57;;;;;;;23.20;14.63;;;;;;;27.21;66.84;98538.90;1694834;83;21000;-73
2021/08/30 10:37:21;;;;;;;34.92;17.95;;;;;;;27.32;65.10;98543.56;1678058;84;20905;-73
2021/08/30 10:39:54;;;;;;;29.98;19.62;;;;;;;27.27;64.45;98546.33;1664961;84;21915;-73
2021/08/30 10:42:23;;;;;;;31.27;17.73;;;;;;;27.30;66.35;98545.42;1718686;81;20974;-72
2021/08/30 10:44:56;;;;;;;26.20;16.15;;;;;;;27.47;65.27;98547.49;1745302;81;20954;-73
2021/08/30 10:47:25;;;;;;;24.70;16.17;;;;;;;27.70;62.67;98554.02;1729212;81;21308;-72
2021/08/30 10:49:53;;;;;;;34.40;16.35;;;;;;;27.91;61.86;98550.42;1721335;81;21144;-73
2021/08/30 10:52:20;;;;;;;21.52;14.65;;;;;;;28.10;62.28;98551.38;1733750;81;21118;-72
2021/08/30 10:54:56;;;;;;;25.65;15.63;;;;;;;28.36;62.99;98551.42;1728906;81;20963;-73
2021/08/30 10:57:34;;;;;;;24.47;15.18;;;;;;;28.60;60.26;98555.97;1737338;80;21440;-72
2021/08/30 11:00:01;;;;;;;25.57;15.13;;;;;;;28.89;60.35;98555.66;1738669;80;21052;-73
2021/08/30 11:02:46;;;;;;;26.10;15.60;;;;;;;29.13;59.61;98558.75;1738068;81;21047;-73
2021/08/30 11:05:13;;;;;;;23.67;15.50;;;;;;;29.18;58.08;98563.80;1707994;82;21093;-73
2021/08/30 11:07:39;;;;;;;28.15;16.93;;;;;;;29.24;56.70;98569.00;1692091;82;21525;-72
2021/08/30 11:10:08;;;;;;;20.90;15.50;;;;;;;29.24;57.37;98567.59;1743793;81;20860;-73
2021/08/30 11:12:41;;;;;;;30.35;15.32;;;;;;;29.31;57.68;98569.34;1749368;82;20897;-72
2021/08/30 11:15:11;;;;;;;20.82;14.23;;;;;;;29.26;57.22;98573.56;1729015;81;20996;-73
2021/08/30 11:17:37;;;;;;;21.00;14.03;;;;;;;29.10;57.21;98567.53;1723600;81;21852;-74
2021/08/30 11:20:06;;;;;;;30.82;15.60;;;;;;;28.83;57.57;98570.25;1737519;81;20937;-71
2021/08/30 11:22:33;;;;;;;22.07;14.75;;;;;;;28.53;58.42;98582.44;1726817;81;20951;-70